createdAt,value
2018-06-04T00:00:06.772Z,1009.67
2018-06-04T00:00:32.917Z,1009.7
2018-06-04T00:00:59.056Z,1009.69
2018-06-04T00:01:25.199Z,1009.69
2018-06-04T00:01:51.334Z,1009.67
2018-06-04T00:02:17.490Z,1009.66
2018-06-04T00:02:43.645Z,1009.65
2018-06-04T00:03:09.827Z,1009.67
2018-06-04T00:03:35.960Z,1009.69
2018-06-04T00:04:02.102Z,1009.66
2018-06-04T00:04:28.245Z,1009.69
2018-06-04T00:04:54.408Z,1009.69
2018-06-04T00:05:20.547Z,1009.67
2018-06-04T00:05:46.695Z,1009.66
2018-06-04T00:06:12.834Z,1009.65
2018-06-04T00:06:38.972Z,1009.67
2018-06-04T00:07:05.118Z,1009.64
2018-06-04T00:07:31.258Z,1009.64
2018-06-04T00:07:57.409Z,1009.59
2018-06-04T00:08:23.553Z,1009.63
2018-06-04T00:08:49.697Z,1009.62
2018-06-04T00:09:15.839Z,1009.6
2018-06-04T00:09:41.997Z,1009.61
2018-06-04T00:10:08.135Z,1009.6
2018-06-04T00:10:34.661Z,1009.63
2018-06-04T00:11:00.799Z,1009.58
2018-06-04T00:11:26.946Z,1009.59
2018-06-04T00:11:53.084Z,1009.58
2018-06-04T00:12:19.227Z,1009.59
2018-06-04T00:12:45.361Z,1009.58
2018-06-04T00:13:11.505Z,1009.6
2018-06-04T00:13:37.647Z,1009.6
2018-06-04T00:14:03.836Z,1009.6
2018-06-04T00:14:29.999Z,1009.58
2018-06-04T00:14:56.137Z,1009.62
2018-06-04T00:15:22.276Z,1009.61
2018-06-04T00:15:48.420Z,1009.58
2018-06-04T00:16:14.561Z,1009.61
2018-06-04T00:16:40.702Z,1009.6
2018-06-04T00:17:06.842Z,1009.59
2018-06-04T00:17:32.982Z,1009.59
2018-06-04T00:17:59.124Z,1009.57
2018-06-04T00:18:25.259Z,1009.54
2018-06-04T00:18:51.425Z,1009.56
2018-06-04T00:19:17.592Z,1009.5
2018-06-04T00:19:43.730Z,1009.53
2018-06-04T00:20:09.873Z,1009.55
2018-06-04T00:20:36.035Z,1009.54
2018-06-04T00:21:02.178Z,1009.56
2018-06-04T00:21:28.319Z,1009.51
2018-06-04T00:21:54.456Z,1009.51
2018-06-04T00:22:20.620Z,1009.51
2018-06-04T00:22:46.758Z,1009.51
2018-06-04T00:23:12.901Z,1009.48
2018-06-04T00:23:39.040Z,1009.5
2018-06-04T00:24:05.179Z,1009.5
2018-06-04T00:24:31.348Z,1009.47
2018-06-04T00:24:57.501Z,1009.46
2018-06-04T00:25:23.666Z,1009.47
2018-06-04T00:25:49.815Z,1009.49
2018-06-04T00:26:15.952Z,1009.47
2018-06-04T00:26:42.096Z,1009.47
2018-06-04T00:27:08.256Z,1009.47
2018-06-04T00:27:34.399Z,1009.5
2018-06-04T00:28:00.561Z,1009.46
2018-06-04T00:28:26.727Z,1009.45
2018-06-04T00:28:52.868Z,1009.45
2018-06-04T00:29:19.011Z,1009.44
2018-06-04T00:29:45.174Z,1009.41
2018-06-04T00:30:11.315Z,1009.41
2018-06-04T00:30:37.452Z,1009.4
2018-06-04T00:31:03.620Z,1009.41
2018-06-04T00:31:29.762Z,1009.41
2018-06-04T00:31:55.933Z,1009.42
2018-06-04T00:32:22.104Z,1009.39
2018-06-04T00:32:48.214Z,1009.4
2018-06-04T00:33:14.347Z,1009.42
2018-06-04T00:33:40.487Z,1009.4
2018-06-04T00:34:06.634Z,1009.37
2018-06-04T00:34:32.777Z,1009.39
2018-06-04T00:34:58.942Z,1009.4
2018-06-04T00:35:25.098Z,1009.38
2018-06-04T00:35:51.240Z,1009.4
2018-06-04T00:36:17.378Z,1009.38
2018-06-04T00:36:43.535Z,1009.42
2018-06-04T00:37:09.675Z,1009.4
2018-06-04T00:37:35.809Z,1009.42
2018-06-04T00:38:01.980Z,1009.42
2018-06-04T00:38:28.114Z,1009.41
2018-06-04T00:38:54.252Z,1009.39
2018-06-04T00:39:20.393Z,1009.4
2018-06-04T00:39:46.533Z,1009.41
2018-06-04T00:40:12.663Z,1009.39
2018-06-04T00:40:38.804Z,1009.4
2018-06-04T00:41:04.951Z,1009.35
2018-06-04T00:41:31.096Z,1009.36
2018-06-04T00:41:57.235Z,1009.38
2018-06-04T00:42:23.375Z,1009.37
2018-06-04T00:42:49.539Z,1009.38
2018-06-04T00:43:15.677Z,1009.34
2018-06-04T00:43:41.815Z,1009.35
2018-06-04T00:44:07.984Z,1009.37
2018-06-04T00:44:34.117Z,1009.38
2018-06-04T00:45:00.293Z,1009.35
2018-06-04T00:45:26.425Z,1009.36
2018-06-04T00:45:52.568Z,1009.4
2018-06-04T00:46:18.712Z,1009.35
2018-06-04T00:46:44.849Z,1009.39
2018-06-04T00:47:10.991Z,1009.39
2018-06-04T00:47:37.132Z,1009.41
2018-06-04T00:48:03.265Z,1009.35
2018-06-04T00:48:29.409Z,1009.39
2018-06-04T00:48:55.545Z,1009.39
2018-06-04T00:49:21.685Z,1009.38
2018-06-04T00:49:47.827Z,1009.39
2018-06-04T00:50:13.968Z,1009.41
2018-06-04T00:50:40.115Z,1009.38
2018-06-04T00:51:06.249Z,1009.36
2018-06-04T00:51:32.397Z,1009.36
2018-06-04T00:51:58.535Z,1009.42
2018-06-04T00:52:24.670Z,1009.39
2018-06-04T00:52:50.814Z,1009.37
2018-06-04T00:53:16.952Z,1009.37
2018-06-04T00:53:43.095Z,1009.39
2018-06-04T00:54:09.237Z,1009.4
2018-06-04T00:54:35.371Z,1009.4
2018-06-04T00:55:01.512Z,1009.4
2018-06-04T00:55:27.653Z,1009.36
2018-06-04T00:55:53.788Z,1009.37
2018-06-04T00:56:19.931Z,1009.42
2018-06-04T00:56:46.077Z,1009.41
2018-06-04T00:57:12.217Z,1009.41
2018-06-04T00:57:38.351Z,1009.39
2018-06-04T00:58:04.502Z,1009.39
2018-06-04T00:58:30.644Z,1009.39
2018-06-04T00:58:56.779Z,1009.45
2018-06-04T00:59:22.921Z,1009.43
2018-06-04T00:59:49.070Z,1009.39
2018-06-04T01:00:15.210Z,1009.37
2018-06-04T01:00:41.348Z,1009.38
2018-06-04T01:01:07.543Z,1009.39
2018-06-04T01:01:33.696Z,1009.39
2018-06-04T01:01:59.833Z,1009.42
2018-06-04T01:02:25.975Z,1009.39
2018-06-04T01:02:52.120Z,1009.38
2018-06-04T01:03:18.258Z,1009.36
2018-06-04T01:03:44.418Z,1009.44
2018-06-04T01:04:10.566Z,1009.42
2018-06-04T01:04:36.720Z,1009.41
2018-06-04T01:05:02.850Z,1009.41
2018-06-04T01:05:28.993Z,1009.42
2018-06-04T01:05:55.130Z,1009.41
2018-06-04T01:06:21.293Z,1009.42
2018-06-04T01:06:47.433Z,1009.4
2018-06-04T01:07:13.567Z,1009.4
2018-06-04T01:07:39.712Z,1009.44
2018-06-04T01:08:05.850Z,1009.45
2018-06-04T01:08:32.016Z,1009.43
2018-06-04T01:08:58.180Z,1009.45
2018-06-04T01:09:24.324Z,1009.43
2018-06-04T01:09:50.462Z,1009.45
2018-06-04T01:10:16.588Z,1009.46
2018-06-04T01:10:42.725Z,1009.47
2018-06-04T01:11:08.873Z,1009.46
2018-06-04T01:11:35.039Z,1009.45
2018-06-04T01:12:01.180Z,1009.49
2018-06-04T01:12:27.323Z,1009.48
2018-06-04T01:12:53.461Z,1009.48
2018-06-04T01:13:19.652Z,1009.51
2018-06-04T01:13:45.813Z,1009.5
2018-06-04T01:14:11.986Z,1009.48
2018-06-04T01:14:38.143Z,1009.51
2018-06-04T01:15:04.286Z,1009.52
2018-06-04T01:15:30.425Z,1009.52
2018-06-04T01:15:56.560Z,1009.48
2018-06-04T01:16:22.700Z,1009.49
2018-06-04T01:16:48.840Z,1009.51
2018-06-04T01:17:15.008Z,1009.49
2018-06-04T01:17:41.145Z,1009.49
2018-06-04T01:18:07.289Z,1009.51
2018-06-04T01:18:33.417Z,1009.47
2018-06-04T01:18:59.585Z,1009.48
2018-06-04T01:19:25.772Z,1009.5
2018-06-04T01:19:51.908Z,1009.45
2018-06-04T01:20:18.052Z,1009.48
2018-06-04T01:20:44.192Z,1009.5
2018-06-04T01:21:10.352Z,1009.51
2018-06-04T01:21:36.496Z,1009.46
2018-06-04T01:22:02.652Z,1009.49
2018-06-04T01:22:28.796Z,1009.47
2018-06-04T01:22:54.932Z,1009.5
2018-06-04T01:23:21.081Z,1009.48
2018-06-04T01:23:47.214Z,1009.51
2018-06-04T01:24:13.389Z,1009.47
2018-06-04T01:24:39.487Z,1009.49
2018-06-04T01:25:05.626Z,1009.47
2018-06-04T01:25:31.783Z,1009.47
2018-06-04T01:25:57.928Z,1009.46
2018-06-04T01:26:24.071Z,1009.47
2018-06-04T01:26:50.204Z,1009.46
2018-06-04T01:27:16.347Z,1009.49
2018-06-04T01:27:42.490Z,1009.45
2018-06-04T01:28:08.664Z,1009.51
2018-06-04T01:28:34.805Z,1009.46
2018-06-04T01:29:00.944Z,1009.47
2018-06-04T01:29:27.087Z,1009.48
2018-06-04T01:29:53.220Z,1009.46
2018-06-04T01:30:19.389Z,1009.49
2018-06-04T01:30:45.553Z,1009.47
2018-06-04T01:31:11.689Z,1009.46
2018-06-04T01:31:37.847Z,1009.43
2018-06-04T01:32:03.989Z,1009.45
2018-06-04T01:32:30.133Z,1009.41
2018-06-04T01:32:56.269Z,1009.46
2018-06-04T01:33:22.405Z,1009.44
2018-06-04T01:33:48.544Z,1009.39
2018-06-04T01:34:14.683Z,1009.42
2018-06-04T01:34:40.826Z,1009.39
2018-06-04T01:35:06.997Z,1009.39
2018-06-04T01:35:33.131Z,1009.39
2018-06-04T01:35:59.278Z,1009.4
2018-06-04T01:36:25.409Z,1009.4
2018-06-04T01:36:51.549Z,1009.36
2018-06-04T01:37:17.688Z,1009.36
2018-06-04T01:37:43.826Z,1009.37
2018-06-04T01:38:09.968Z,1009.33
2018-06-04T01:38:36.112Z,1009.36
2018-06-04T01:39:02.253Z,1009.39
2018-06-04T01:39:28.391Z,1009.38
2018-06-04T01:39:54.535Z,1009.37
2018-06-04T01:40:20.670Z,1009.34
2018-06-04T01:40:46.807Z,1009.37
2018-06-04T01:41:12.951Z,1009.39
2018-06-04T01:41:39.108Z,1009.37
2018-06-04T01:42:05.254Z,1009.4
2018-06-04T01:42:31.418Z,1009.38
2018-06-04T01:42:57.551Z,1009.38
2018-06-04T01:43:23.691Z,1009.36
2018-06-04T01:43:49.852Z,1009.4
2018-06-04T01:44:15.994Z,1009.37
2018-06-04T01:44:42.141Z,1009.42
2018-06-04T01:45:08.304Z,1009.39
2018-06-04T01:45:34.445Z,1009.41
2018-06-04T01:46:00.584Z,1009.39
2018-06-04T01:46:26.725Z,1009.38
2018-06-04T01:46:52.860Z,1009.42
2018-06-04T01:47:19.005Z,1009.39
2018-06-04T01:47:45.147Z,1009.34
2018-06-04T01:48:11.290Z,1009.35
2018-06-04T01:48:37.471Z,1009.35
2018-06-04T01:49:03.605Z,1009.36
2018-06-04T01:49:29.742Z,1009.34
2018-06-04T01:49:55.887Z,1009.32
2018-06-04T01:50:22.025Z,1009.32
2018-06-04T01:50:48.168Z,1009.35
2018-06-04T01:51:14.328Z,1009.31
2018-06-04T01:51:40.470Z,1009.32
2018-06-04T01:52:06.616Z,1009.3
2018-06-04T01:52:32.756Z,1009.29
2018-06-04T01:52:58.887Z,1009.25
2018-06-04T01:53:25.032Z,1009.26
2018-06-04T01:53:51.196Z,1009.28
2018-06-04T01:54:17.362Z,1009.25
2018-06-04T01:54:43.518Z,1009.25
2018-06-04T01:55:09.658Z,1009.25
2018-06-04T01:55:35.796Z,1009.24
2018-06-04T01:56:01.940Z,1009.24
2018-06-04T01:56:28.077Z,1009.22
2018-06-04T01:56:54.218Z,1009.25
2018-06-04T01:57:20.361Z,1009.23
2018-06-04T01:57:46.498Z,1009.24
2018-06-04T01:58:12.641Z,1009.24
2018-06-04T01:58:38.792Z,1009.22
2018-06-04T01:59:04.923Z,1009.25
2018-06-04T01:59:31.136Z,1009.2
2018-06-04T01:59:57.278Z,1009.23
2018-06-04T02:00:23.442Z,1009.23
2018-06-04T02:00:49.581Z,1009.25
2018-06-04T02:01:15.753Z,1009.23
2018-06-04T02:01:41.882Z,1009.21
2018-06-04T02:02:08.029Z,1009.23
2018-06-04T02:02:34.166Z,1009.23
2018-06-04T02:03:00.313Z,1009.22
2018-06-04T02:03:26.449Z,1009.19
2018-06-04T02:03:52.589Z,1009.19
2018-06-04T02:04:18.730Z,1009.19
2018-06-04T02:04:44.877Z,1009.15
2018-06-04T02:05:11.014Z,1009.15
2018-06-04T02:05:37.147Z,1009.15
2018-06-04T02:06:03.290Z,1009.14
2018-06-04T02:06:29.425Z,1009.14
2018-06-04T02:06:55.565Z,1009.14
2018-06-04T02:07:21.699Z,1009.15
2018-06-04T02:07:47.840Z,1009.13
2018-06-04T02:08:13.981Z,1009.12
2018-06-04T02:08:40.122Z,1009.14
2018-06-04T02:09:06.283Z,1009.14
2018-06-04T02:09:32.423Z,1009.16
2018-06-04T02:09:58.563Z,1009.14
2018-06-04T02:10:24.700Z,1009.13
2018-06-04T02:10:50.840Z,1009.16
2018-06-04T02:11:16.989Z,1009.14
2018-06-04T02:11:43.133Z,1009.13
2018-06-04T02:12:09.276Z,1009.16
2018-06-04T02:12:35.411Z,1009.13
2018-06-04T02:13:01.556Z,1009.11
2018-06-04T02:13:27.717Z,1009.14
2018-06-04T02:13:53.854Z,1009.11
2018-06-04T02:14:19.990Z,1009.13
2018-06-04T02:14:46.134Z,1009.13
2018-06-04T02:15:12.295Z,1009.11
2018-06-04T02:15:38.436Z,1009.12
2018-06-04T02:16:04.577Z,1009.07
2018-06-04T02:16:30.720Z,1009.09
2018-06-04T02:16:56.866Z,1009.08
2018-06-04T02:17:23.003Z,1009.08
2018-06-04T02:17:49.143Z,1009.09
2018-06-04T02:18:15.278Z,1009.07
2018-06-04T02:18:41.436Z,1009.05
2018-06-04T02:19:07.558Z,1009.05
2018-06-04T02:19:33.744Z,1009.06
2018-06-04T02:19:59.933Z,1009.05
2018-06-04T02:20:26.075Z,1009.02
2018-06-04T02:20:52.240Z,1009.05
2018-06-04T02:21:18.426Z,1009.05
2018-06-04T02:21:44.575Z,1009.03
2018-06-04T02:22:10.712Z,1009.07
2018-06-04T02:22:36.843Z,1009.02
2018-06-04T02:23:02.985Z,1009.03
2018-06-04T02:23:29.151Z,1009.03
2018-06-04T02:23:55.293Z,1009.04
2018-06-04T02:24:21.432Z,1009.03
2018-06-04T02:24:47.594Z,1009.01
2018-06-04T02:25:13.745Z,1009.02
2018-06-04T02:25:39.886Z,1008.98
2018-06-04T02:26:06.022Z,1009.02
2018-06-04T02:26:32.152Z,1008.97
2018-06-04T02:26:58.302Z,1008.98
2018-06-04T02:27:24.447Z,1008.93
2018-06-04T02:27:50.586Z,1008.95
2018-06-04T02:28:16.717Z,1008.95
2018-06-04T02:28:42.861Z,1008.93
2018-06-04T02:29:09.083Z,1008.93
2018-06-04T02:29:35.226Z,1008.94
2018-06-04T02:30:01.369Z,1008.96
2018-06-04T02:30:27.561Z,1008.9
2018-06-04T02:30:53.710Z,1008.91
2018-06-04T02:31:19.835Z,1008.9
2018-06-04T02:31:45.994Z,1008.93
2018-06-04T02:32:12.143Z,1008.94
2018-06-04T02:32:38.272Z,1008.91
2018-06-04T02:33:04.488Z,1008.93
2018-06-04T02:33:30.659Z,1008.92
2018-06-04T02:33:56.830Z,1008.94
2018-06-04T02:34:22.973Z,1008.93
2018-06-04T02:34:49.189Z,1008.93
2018-06-04T02:35:15.355Z,1008.93
2018-06-04T02:35:41.497Z,1008.91
2018-06-04T02:36:07.637Z,1008.92
2018-06-04T02:36:33.849Z,1008.94
2018-06-04T02:37:00.012Z,1008.94
2018-06-04T02:37:26.173Z,1008.91
2018-06-04T02:37:52.319Z,1008.9
2018-06-04T02:38:18.505Z,1008.91
2018-06-04T02:38:44.641Z,1008.89
2018-06-04T02:39:10.789Z,1008.87
2018-06-04T02:39:36.926Z,1008.88
2018-06-04T02:40:03.110Z,1008.89
2018-06-04T02:40:29.300Z,1008.86
2018-06-04T02:40:55.455Z,1008.87
2018-06-04T02:41:21.625Z,1008.86
2018-06-04T02:41:47.759Z,1008.85
2018-06-04T02:42:13.956Z,1008.88
2018-06-04T02:42:40.114Z,1008.83
2018-06-04T02:43:06.280Z,1008.82
2018-06-04T02:43:32.410Z,1008.79
2018-06-04T02:43:58.580Z,1008.8
2018-06-04T02:44:24.772Z,1008.83
2018-06-04T02:44:50.916Z,1008.81
2018-06-04T02:45:17.067Z,1008.78
2018-06-04T02:45:43.230Z,1008.77
2018-06-04T02:46:09.371Z,1008.82
2018-06-04T02:46:35.557Z,1008.84
2018-06-04T02:47:01.697Z,1008.82
2018-06-04T02:47:27.891Z,1008.82
2018-06-04T02:47:54.080Z,1008.83
2018-06-04T02:48:20.265Z,1008.85
2018-06-04T02:48:46.428Z,1008.85
2018-06-04T02:49:12.586Z,1008.83
2018-06-04T02:49:38.734Z,1008.85
2018-06-04T02:50:04.997Z,1008.84
2018-06-04T02:50:31.053Z,1008.9
2018-06-04T02:50:57.216Z,1008.87
2018-06-04T02:51:23.354Z,1008.88
2018-06-04T02:51:49.513Z,1008.9
2018-06-04T02:52:15.658Z,1008.9
2018-06-04T02:52:41.820Z,1008.89
2018-06-04T02:53:07.965Z,1008.88
2018-06-04T02:53:34.101Z,1008.87
2018-06-04T02:54:00.250Z,1008.92
2018-06-04T02:54:26.416Z,1008.9
2018-06-04T02:54:52.600Z,1008.85
2018-06-04T02:55:18.793Z,1008.85
2018-06-04T02:55:44.961Z,1008.87
2018-06-04T02:56:11.099Z,1008.88
2018-06-04T02:56:37.256Z,1008.88
2018-06-04T02:57:03.432Z,1008.89
2018-06-04T02:57:29.569Z,1008.89
2018-06-04T02:57:55.745Z,1008.87
2018-06-04T02:58:21.911Z,1008.89
2018-06-04T02:58:48.049Z,1008.89
2018-06-04T02:59:14.225Z,1008.91
2018-06-04T02:59:40.365Z,1008.93
2018-06-04T03:00:06.508Z,1008.88
2018-06-04T03:00:32.700Z,1008.84
2018-06-04T03:00:58.836Z,1008.9
2018-06-04T03:01:24.985Z,1008.92
2018-06-04T03:01:51.139Z,1008.9
2018-06-04T03:02:17.390Z,1008.9
2018-06-04T03:02:43.719Z,1008.89
2018-06-04T03:03:09.908Z,1008.9
2018-06-04T03:03:36.146Z,1008.93
2018-06-04T03:04:02.339Z,1008.93
2018-06-04T03:04:28.713Z,1008.89
2018-06-04T03:04:54.900Z,1008.93
2018-06-04T03:05:21.041Z,1008.91
2018-06-04T03:05:47.204Z,1008.91
2018-06-04T03:06:13.339Z,1008.92
2018-06-04T03:06:39.528Z,1008.93
2018-06-04T03:07:05.688Z,1008.91
2018-06-04T03:07:31.851Z,1008.92
2018-06-04T03:07:58.042Z,1008.9
2018-06-04T03:08:24.180Z,1008.88
2018-06-04T03:08:50.325Z,1008.91
2018-06-04T03:09:16.474Z,1008.9
2018-06-04T03:09:42.606Z,1008.87
2018-06-04T03:10:08.788Z,1008.84
2018-06-04T03:10:34.929Z,1008.9
2018-06-04T03:11:01.073Z,1008.85
2018-06-04T03:11:27.215Z,1008.88
2018-06-04T03:11:53.376Z,1008.87
2018-06-04T03:12:19.514Z,1008.89
2018-06-04T03:12:45.654Z,1008.85
2018-06-04T03:13:11.790Z,1008.87
2018-06-04T03:13:37.953Z,1008.85
2018-06-04T03:14:04.092Z,1008.86
2018-06-04T03:14:30.280Z,1008.85
2018-06-04T03:14:56.477Z,1008.82
2018-06-04T03:15:22.627Z,1008.86
2018-06-04T03:15:48.783Z,1008.83
2018-06-04T03:16:14.953Z,1008.81
2018-06-04T03:16:41.095Z,1008.81
2018-06-04T03:17:07.307Z,1008.81
2018-06-04T03:17:33.445Z,1008.84
2018-06-04T03:17:59.587Z,1008.81
2018-06-04T03:18:25.728Z,1008.82
2018-06-04T03:18:51.875Z,1008.8
2018-06-04T03:19:18.010Z,1008.8
2018-06-04T03:19:44.149Z,1008.79
2018-06-04T03:20:10.308Z,1008.81
2018-06-04T03:20:36.446Z,1008.81
2018-06-04T03:21:02.584Z,1008.79
2018-06-04T03:21:28.753Z,1008.81
2018-06-04T03:21:54.890Z,1008.8
2018-06-04T03:22:21.028Z,1008.83
2018-06-04T03:22:47.167Z,1008.84
2018-06-04T03:23:13.308Z,1008.79
2018-06-04T03:23:39.446Z,1008.84
2018-06-04T03:24:05.586Z,1008.82
2018-06-04T03:24:31.727Z,1008.83
2018-06-04T03:24:57.859Z,1008.8
2018-06-04T03:25:23.999Z,1008.82
2018-06-04T03:25:50.147Z,1008.85
2018-06-04T03:26:16.316Z,1008.84
2018-06-04T03:26:42.447Z,1008.83
2018-06-04T03:27:08.590Z,1008.8
2018-06-04T03:27:34.728Z,1008.8
2018-06-04T03:28:00.871Z,1008.79
2018-06-04T03:28:27.018Z,1008.81
2018-06-04T03:28:53.183Z,1008.85
2018-06-04T03:29:19.325Z,1008.82
2018-06-04T03:29:45.466Z,1008.85
2018-06-04T03:30:11.673Z,1008.81
2018-06-04T03:30:37.859Z,1008.8
2018-06-04T03:31:04.032Z,1008.78
2018-06-04T03:31:30.214Z,1008.84
2018-06-04T03:31:56.352Z,1008.79
2018-06-04T03:32:22.522Z,1008.78
2018-06-04T03:32:48.658Z,1008.8
2018-06-04T03:33:14.823Z,1008.79
2018-06-04T03:33:40.967Z,1008.81
2018-06-04T03:34:07.103Z,1008.84
2018-06-04T03:34:33.237Z,1008.79
2018-06-04T03:34:59.405Z,1008.83
2018-06-04T03:35:25.544Z,1008.83
2018-06-04T03:35:51.721Z,1008.8
2018-06-04T03:36:17.866Z,1008.82
2018-06-04T03:36:44.026Z,1008.84
2018-06-04T03:37:10.168Z,1008.8
2018-06-04T03:37:36.308Z,1008.87
2018-06-04T03:38:02.448Z,1008.84
2018-06-04T03:38:28.605Z,1008.79
2018-06-04T03:38:54.747Z,1008.82
2018-06-04T03:39:20.886Z,1008.82
2018-06-04T03:39:47.029Z,1008.87
2018-06-04T03:40:13.168Z,1008.85
2018-06-04T03:40:39.332Z,1008.84
2018-06-04T03:41:05.463Z,1008.81
2018-06-04T03:41:31.601Z,1008.83
2018-06-04T03:41:57.738Z,1008.8
2018-06-04T03:42:23.879Z,1008.81
2018-06-04T03:42:50.024Z,1008.8
2018-06-04T03:43:16.184Z,1008.8
2018-06-04T03:43:42.318Z,1008.82
2018-06-04T03:44:08.464Z,1008.81
2018-06-04T03:44:34.597Z,1008.81
2018-06-04T03:45:00.742Z,1008.78
2018-06-04T03:45:26.874Z,1008.79
2018-06-04T03:45:53.015Z,1008.83
2018-06-04T03:46:19.150Z,1008.77
2018-06-04T03:46:45.293Z,1008.77
2018-06-04T03:47:11.430Z,1008.79
2018-06-04T03:47:37.573Z,1008.82
2018-06-04T03:48:03.736Z,1008.83
2018-06-04T03:48:29.874Z,1008.83
2018-06-04T03:48:56.020Z,1008.86
2018-06-04T03:49:22.161Z,1008.83
2018-06-04T03:49:48.301Z,1008.81
2018-06-04T03:50:14.436Z,1008.83
2018-06-04T03:50:40.579Z,1008.85
2018-06-04T03:51:06.720Z,1008.84
2018-06-04T03:51:32.854Z,1008.87
2018-06-04T03:51:58.995Z,1008.86
2018-06-04T03:52:25.158Z,1008.88
2018-06-04T03:52:51.290Z,1008.88
2018-06-04T03:53:17.435Z,1008.86
2018-06-04T03:53:43.573Z,1008.88
2018-06-04T03:54:09.714Z,1008.83
2018-06-04T03:54:35.858Z,1008.84
2018-06-04T03:55:02.001Z,1008.85
2018-06-04T03:55:28.147Z,1008.83
2018-06-04T03:55:54.278Z,1008.84
2018-06-04T03:56:20.438Z,1008.83
2018-06-04T03:56:46.629Z,1008.81
2018-06-04T03:57:12.728Z,1008.83
2018-06-04T03:57:38.864Z,1008.81
2018-06-04T03:58:05.010Z,1008.85
2018-06-04T03:58:31.166Z,1008.84
2018-06-04T03:58:57.315Z,1008.81
2018-06-04T03:59:23.451Z,1008.8
2018-06-04T03:59:49.640Z,1008.84
2018-06-04T04:00:15.775Z,1008.85
2018-06-04T04:00:41.918Z,1008.84
2018-06-04T04:01:08.057Z,1008.85
2018-06-04T04:01:34.226Z,1008.86
2018-06-04T04:02:00.365Z,1008.83
2018-06-04T04:02:26.501Z,1008.84
2018-06-04T04:02:52.681Z,1008.83
2018-06-04T04:03:18.803Z,1008.83
2018-06-04T04:03:44.938Z,1008.81
2018-06-04T04:04:11.075Z,1008.77
2018-06-04T04:04:37.228Z,1008.8
2018-06-04T04:05:03.371Z,1008.79
2018-06-04T04:05:29.525Z,1008.81
2018-06-04T04:05:55.671Z,1008.75
2018-06-04T04:06:21.813Z,1008.8
2018-06-04T04:06:47.958Z,1008.76
2018-06-04T04:07:14.097Z,1008.78
2018-06-04T04:07:40.258Z,1008.78
2018-06-04T04:08:06.395Z,1008.8
2018-06-04T04:08:32.549Z,1008.82
2018-06-04T04:08:58.685Z,1008.78
2018-06-04T04:09:24.827Z,1008.8
2018-06-04T04:09:50.963Z,1008.79
2018-06-04T04:10:17.125Z,1008.82
2018-06-04T04:10:43.261Z,1008.82
2018-06-04T04:11:09.411Z,1008.83
2018-06-04T04:11:35.550Z,1008.85
2018-06-04T04:12:01.692Z,1008.83
2018-06-04T04:12:27.831Z,1008.85
2018-06-04T04:12:53.966Z,1008.87
2018-06-04T04:13:20.129Z,1008.87
2018-06-04T04:13:46.273Z,1008.87
2018-06-04T04:14:12.417Z,1008.87
2018-06-04T04:14:38.554Z,1008.89
2018-06-04T04:15:04.699Z,1008.84
2018-06-04T04:15:30.843Z,1008.88
2018-06-04T04:15:56.979Z,1008.85
2018-06-04T04:16:23.113Z,1008.82
2018-06-04T04:16:49.255Z,1008.86
2018-06-04T04:17:15.391Z,1008.85
2018-06-04T04:17:41.536Z,1008.84
2018-06-04T04:18:07.675Z,1008.85
2018-06-04T04:18:33.827Z,1008.86
2018-06-04T04:18:59.964Z,1008.85
2018-06-04T04:19:26.146Z,1008.83
2018-06-04T04:19:52.283Z,1008.85
2018-06-04T04:20:18.419Z,1008.85
2018-06-04T04:20:44.562Z,1008.84
2018-06-04T04:21:10.691Z,1008.82
2018-06-04T04:21:36.831Z,1008.81
2018-06-04T04:22:02.969Z,1008.82
2018-06-04T04:22:29.119Z,1008.83
2018-06-04T04:22:55.250Z,1008.83
2018-06-04T04:23:21.399Z,1008.83
2018-06-04T04:23:47.529Z,1008.86
2018-06-04T04:24:13.721Z,1008.85
2018-06-04T04:24:39.857Z,1008.87
2018-06-04T04:25:06.005Z,1008.83
2018-06-04T04:25:32.142Z,1008.81
2018-06-04T04:25:58.283Z,1008.81
2018-06-04T04:26:24.424Z,1008.83
2018-06-04T04:26:50.565Z,1008.79
2018-06-04T04:27:16.705Z,1008.84
2018-06-04T04:27:42.900Z,1008.8
2018-06-04T04:28:08.990Z,1008.81
2018-06-04T04:28:35.151Z,1008.81
2018-06-04T04:29:01.318Z,1008.86
2018-06-04T04:29:27.463Z,1008.83
2018-06-04T04:29:53.596Z,1008.81
2018-06-04T04:30:19.744Z,1008.81
2018-06-04T04:30:45.909Z,1008.83
2018-06-04T04:31:12.074Z,1008.82
2018-06-04T04:31:38.235Z,1008.8
2018-06-04T04:32:04.402Z,1008.83
2018-06-04T04:32:30.543Z,1008.77
2018-06-04T04:32:56.689Z,1008.83
2018-06-04T04:33:22.857Z,1008.78
2018-06-04T04:33:48.991Z,1008.8
2018-06-04T04:34:15.159Z,1008.79
2018-06-04T04:34:41.300Z,1008.78
2018-06-04T04:35:07.444Z,1008.77
2018-06-04T04:35:33.584Z,1008.75
2018-06-04T04:35:59.772Z,1008.75
2018-06-04T04:36:25.907Z,1008.75
2018-06-04T04:36:52.053Z,1008.75
2018-06-04T04:37:18.217Z,1008.74
2018-06-04T04:37:44.494Z,1008.73
2018-06-04T04:38:10.516Z,1008.73
2018-06-04T04:38:36.653Z,1008.72
2018-06-04T04:39:02.848Z,1008.74
2018-06-04T04:39:28.977Z,1008.74
2018-06-04T04:39:55.120Z,1008.74
2018-06-04T04:40:21.265Z,1008.75
2018-06-04T04:40:47.407Z,1008.76
2018-06-04T04:41:13.550Z,1008.79
2018-06-04T04:41:39.688Z,1008.79
2018-06-04T04:42:05.829Z,1008.83
2018-06-04T04:42:31.967Z,1008.8
2018-06-04T04:42:58.116Z,1008.81
2018-06-04T04:43:24.253Z,1008.76
2018-06-04T04:43:50.390Z,1008.78
2018-06-04T04:44:16.558Z,1008.79
2018-06-04T04:44:42.698Z,1008.79
2018-06-04T04:45:08.834Z,1008.73
2018-06-04T04:45:34.975Z,1008.75
2018-06-04T04:46:01.123Z,1008.7
2018-06-04T04:46:27.264Z,1008.72
2018-06-04T04:46:53.404Z,1008.72
2018-06-04T04:47:19.541Z,1008.75
2018-06-04T04:47:45.676Z,1008.77
2018-06-04T04:48:11.825Z,1008.74
2018-06-04T04:48:37.960Z,1008.73
2018-06-04T04:49:04.105Z,1008.77
2018-06-04T04:49:30.303Z,1008.81
2018-06-04T04:49:56.438Z,1008.76
2018-06-04T04:50:22.596Z,1008.82
2018-06-04T04:50:48.763Z,1008.78
2018-06-04T04:51:14.900Z,1008.77
2018-06-04T04:51:41.046Z,1008.82
2018-06-04T04:52:07.183Z,1008.79
2018-06-04T04:52:33.364Z,1008.79
2018-06-04T04:52:59.500Z,1008.81
2018-06-04T04:53:25.645Z,1008.75
2018-06-04T04:53:51.804Z,1008.76
2018-06-04T04:54:17.951Z,1008.8
2018-06-04T04:54:44.117Z,1008.82
2018-06-04T04:55:10.285Z,1008.81
2018-06-04T04:55:36.428Z,1008.78
2018-06-04T04:56:02.592Z,1008.81
2018-06-04T04:56:28.741Z,1008.8
2018-06-04T04:56:54.901Z,1008.77
2018-06-04T04:57:21.037Z,1008.78
2018-06-04T04:57:47.182Z,1008.77
2018-06-04T04:58:13.351Z,1008.79
2018-06-04T04:58:39.491Z,1008.77
2018-06-04T04:59:05.639Z,1008.75
2018-06-04T04:59:31.788Z,1008.75
2018-06-04T04:59:57.915Z,1008.75
2018-06-04T05:00:24.076Z,1008.76
2018-06-04T05:00:50.213Z,1008.74
2018-06-04T05:01:16.351Z,1008.73
2018-06-04T05:01:42.491Z,1008.7
2018-06-04T05:02:08.642Z,1008.73
2018-06-04T05:02:34.797Z,1008.72
2018-06-04T05:03:00.988Z,1008.72
2018-06-04T05:03:27.124Z,1008.76
2018-06-04T05:03:53.260Z,1008.73
2018-06-04T05:04:19.430Z,1008.71
2018-06-04T05:04:45.574Z,1008.71
2018-06-04T05:05:11.717Z,1008.71
2018-06-04T05:05:37.859Z,1008.67
2018-06-04T05:06:03.995Z,1008.68
2018-06-04T05:06:30.138Z,1008.7
2018-06-04T05:06:56.312Z,1008.69
2018-06-04T05:07:22.444Z,1008.67
2018-06-04T05:07:48.591Z,1008.67
2018-06-04T05:08:14.755Z,1008.72
2018-06-04T05:08:40.914Z,1008.69
2018-06-04T05:09:07.031Z,1008.68
2018-06-04T05:09:33.176Z,1008.68
2018-06-04T05:09:59.331Z,1008.7
2018-06-04T05:10:25.470Z,1008.71
2018-06-04T05:10:51.612Z,1008.72
2018-06-04T05:11:17.782Z,1008.74
2018-06-04T05:11:43.916Z,1008.71
2018-06-04T05:12:10.057Z,1008.74
2018-06-04T05:12:36.197Z,1008.74
2018-06-04T05:13:02.345Z,1008.74
2018-06-04T05:13:28.481Z,1008.72
2018-06-04T05:13:54.654Z,1008.76
2018-06-04T05:14:20.791Z,1008.71
2018-06-04T05:14:46.952Z,1008.72
2018-06-04T05:15:13.129Z,1008.71
2018-06-04T05:15:39.320Z,1008.7
2018-06-04T05:16:05.453Z,1008.72
2018-06-04T05:16:31.625Z,1008.72
2018-06-04T05:16:57.768Z,1008.78
2018-06-04T05:17:23.928Z,1008.76